Time;durP1;ratioP1;P1;durP2;ratioP2;P2;SDS_P1;SDS_P2;PMS_P1;PMS_P2;Temp;Humidity;BMP_temperature;BMP_pressure;BME280_temperature;BME280_humidity;BME280_pressure;Samples;Min_cycle;Max_cycle;Signal;HPM_P1;HPM_P2
2023/05/09 00:00:10;;;;;;;73.20;46.20;;;;;;;13.34;100.00;101652.56;5092182;28;20024;-51
2023/05/09 00:02:37;;;;;;;73.13;46.72;;;;;;;13.30;100.00;101655.91;5092546;28;20446;-49
2023/05/09 00:05:04;;;;;;;67.63;45.03;;;;;;;13.31;100.00;101653.34;5093026;28;20124;-51
2023/05/09 00:07:30;;;;;;;71.67;43.63;;;;;;;13.30;100.00;101648.13;5091541;28;20403;-49
2023/05/09 00:09:55;;;;;;;65.95;42.97;;;;;;;13.30;100.00;101648.13;5092659;28;20055;-51
2023/05/09 00:12:21;;;;;;;60.50;39.53;;;;;;;13.29;100.00;101641.19;5092620;28;20028;-50
2023/05/09 00:14:50;;;;;;;55.72;38.22;;;;;;;13.32;100.00;101629.22;5095273;28;20024;-53
2023/05/09 00:17:17;;;;;;;59.53;38.75;;;;;;;13.32;100.00;101641.28;5096608;28;20024;-52
2023/05/09 00:19:43;;;;;;;53.45;37.35;;;;;;;13.36;100.00;101642.25;5096825;28;20021;-50
2023/05/09 00:22:08;;;;;;;54.42;36.60;;;;;;;13.35;100.00;101641.41;5095955;28;20024;-49
2023/05/09 00:24:34;;;;;;;53.65;36.00;;;;;;;13.36;100.00;101637.94;5096427;28;20086;-49
2023/05/09 00:26:59;;;;;;;51.63;35.75;;;;;;;13.37;100.00;101638.88;5096548;28;20028;-52
2023/05/09 00:29:24;;;;;;;52.13;35.65;;;;;;;13.36;100.00;101635.34;5095844;28;20035;-51
2023/05/09 00:31:50;;;;;;;48.65;33.42;;;;;;;13.34;100.00;101626.69;5096734;28;20032;-51
2023/05/09 00:34:15;;;;;;;46.92;33.88;;;;;;;13.31;100.00;101626.56;5096364;28;20048;-51
2023/05/09 00:36:40;;;;;;;51.00;34.83;;;;;;;13.29;100.00;101623.06;5095947;28;20471;-50
2023/05/09 00:39:06;;;;;;;47.72;33.25;;;;;;;13.26;100.00;101618.69;5096537;28;20032;-52
2023/05/09 00:41:32;;;;;;;47.85;32.72;;;;;;;13.26;100.00;101617.78;5095973;28;20038;-49
2023/05/09 00:43:57;;;;;;;45.15;33.13;;;;;;;13.27;100.00;101619.53;5095805;28;20032;-51
2023/05/09 00:46:22;;;;;;;47.83;32.38;;;;;;;13.28;100.00;101613.53;5096009;28;20024;-50
2023/05/09 00:48:48;;;;;;;44.50;30.67;;;;;;;13.29;100.00;101611.00;5095996;28;20371;-49
2023/05/09 00:51:14;;;;;;;46.60;31.95;;;;;;;13.32;100.00;101612.81;5095470;28;20024;-52
2023/05/09 00:53:39;;;;;;;47.47;32.67;;;;;;;13.34;100.00;101621.50;5095952;28;20028;-49
2023/05/09 00:56:06;;;;;;;45.33;31.85;;;;;;;13.38;100.00;101617.34;5095680;28;20095;-53
2023/05/09 00:58:31;;;;;;;45.20;31.55;;;;;;;13.36;100.00;101609.47;5095857;28;20022;-49
2023/05/09 01:00:56;;;;;;;45.60;31.73;;;;;;;13.38;100.00;101609.56;5096091;28;20016;-52
2023/05/09 01:03:22;;;;;;;44.35;30.75;;;;;;;13.39;100.00;101603.53;5094862;28;20421;-49
2023/05/09 01:06:06;;;;;;;41.65;30.15;;;;;;;13.40;100.00;101603.63;5095813;28;20058;-53
2023/05/09 01:09:22;;;;;;;44.05;30.10;;;;;;;13.40;100.00;101590.66;5095422;28;20491;-49
2023/05/09 01:11:53;;;;;;;45.22;29.98;;;;;;;13.38;100.00;101587.13;5013150;28;20545;-52
2023/05/09 01:14:38;;;;;;;40.50;29.02;;;;;;;13.38;100.00;101586.28;5081336;28;20036;-52
2023/05/09 01:17:12;;;;;;;38.45;28.92;;;;;;;13.38;100.00;101575.91;5095742;28;20024;-51
2023/05/09 01:19:58;;;;;;;36.92;27.13;;;;;;;13.44;100.00;101576.06;5095412;28;20020;-51
2023/05/09 01:22:30;;;;;;;38.70;26.53;;;;;;;13.41;100.00;101570.81;5095420;28;20028;-50
2023/05/09 01:24:59;;;;;;;38.03;26.95;;;;;;;13.37;100.00;101563.78;5094514;28;20039;-53
2023/05/09 01:28:01;;;;;;;36.03;25.60;;;;;;;13.38;100.00;101555.19;5095356;28;20032;-49
2023/05/09 01:30:28;;;;;;;37.03;26.35;;;;;;;13.37;100.00;101551.72;5094957;28;20113;-50
2023/05/09 01:32:59;;;;;;;37.20;27.08;;;;;;;13.36;100.00;101555.09;5094876;28;20383;-53
2023/05/09 01:35:25;;;;;;;33.92;25.27;;;;;;;13.33;100.00;101544.66;5095246;28;20034;-49
2023/05/09 01:37:53;;;;;;;37.17;26.70;;;;;;;13.35;100.00;101545.59;5095267;28;20028;-49
2023/05/09 01:40:20;;;;;;;35.58;25.75;;;;;;;13.32;100.00;101543.81;5094503;28;20070;-49
2023/05/09 01:42:51;;;;;;;35.60;26.97;;;;;;;13.30;100.00;101544.59;5095388;28;20034;-50
2023/05/09 01:45:18;;;;;;;36.20;26.25;;;;;;;13.29;100.00;101541.09;5094584;28;20296;-52
2023/05/09 01:47:43;;;;;;;37.90;26.98;;;;;;;13.27;100.00;101535.03;5094831;28;20077;-51
2023/05/09 01:50:10;;;;;;;34.53;25.17;;;;;;;13.23;100.00;101534.88;5095340;28;20031;-49
2023/05/09 01:52:38;;;;;;;35.15;26.20;;;;;;;13.22;100.00;101527.94;5094179;28;20036;-50
2023/05/09 01:55:05;;;;;;;34.58;25.67;;;;;;;13.17;100.00;101523.50;5095229;28;20024;-52
2023/05/09 01:57:33;;;;;;;32.70;26.23;;;;;;;13.14;100.00;101520.84;5094678;28;20127;-49
2023/05/09 02:00:00;;;;;;;33.53;25.42;;;;;;;13.11;100.00;101525.91;5094050;28;20020;-49
2023/05/09 02:02:27;;;;;;;37.10;27.50;;;;;;;13.09;100.00;101517.22;5094766;28;20028;-50
2023/05/09 02:04:56;;;;;;;34.78;26.13;;;;;;;13.09;100.00;101519.81;5094772;28;20032;-53
2023/05/09 02:07:23;;;;;;;35.40;26.13;;;;;;;13.07;100.00;101513.72;5093666;28;20472;-48
2023/05/09 02:09:49;;;;;;;35.00;26.58;;;;;;;13.06;100.00;101519.72;5094667;28;20040;-49
2023/05/09 02:12:14;;;;;;;35.90;25.50;;;;;;;13.04;100.00;101513.63;5094325;28;20078;-50
2023/05/09 02:14:39;;;;;;;37.00;26.05;;;;;;;13.00;100.00;101512.66;5093735;28;20110;-49
2023/05/09 02:17:05;;;;;;;34.42;27.45;;;;;;;13.00;100.00;101511.75;5094742;28;20063;-49
2023/05/09 02:19:34;;;;;;;36.13;26.23;;;;;;;12.97;100.00;101519.44;5094132;28;20020;-51
2023/05/09 02:22:01;;;;;;;37.95;26.88;;;;;;;12.97;100.00;101509.09;5094045;28;20056;-49
2023/05/09 02:24:27;;;;;;;34.53;25.55;;;;;;;12.92;100.00;101511.53;5094056;28;20525;-52
2023/05/09 02:26:54;;;;;;;35.78;26.50;;;;;;;12.93;100.00;101517.59;5094164;28;20032;-49
2023/05/09 02:29:26;;;;;;;35.78;26.55;;;;;;;12.91;100.00;101527.91;5093327;28;20387;-53
2023/05/09 02:31:52;;;;;;;38.08;26.77;;;;;;;12.91;100.00;101527.00;5094226;28;20467;-51
2023/05/09 02:34:18;;;;;;;39.22;28.05;;;;;;;12.89;100.00;101518.34;5093743;28;20111;-53
2023/05/09 02:36:44;;;;;;;35.28;26.52;;;;;;;12.87;100.00;101520.84;5093018;28;20345;-53
2023/05/09 02:39:10;;;;;;;39.55;27.98;;;;;;;12.88;100.00;101516.56;5094352;28;20055;-52
2023/05/09 02:41:36;;;;;;;36.47;26.70;;;;;;;12.83;100.00;101517.31;5093063;28;20459;-50
2023/05/09 02:44:02;;;;;;;37.80;26.73;;;;;;;12.83;100.00;101525.06;5094105;28;20478;-51
2023/05/09 02:46:27;;;;;;;35.88;27.02;;;;;;;12.79;100.00;101523.19;5093914;28;20024;-50
2023/05/09 02:48:52;;;;;;;37.80;27.38;;;;;;;12.77;100.00;101519.69;5093182;28;20020;-53
2023/05/09 02:51:18;;;;;;;40.38;28.05;;;;;;;12.74;100.00;101506.66;5093709;28;20055;-50
2023/05/09 02:53:43;;;;;;;37.50;27.17;;;;;;;12.72;100.00;101500.56;5093794;28;20024;-52
2023/05/09 02:56:09;;;;;;;36.28;27.17;;;;;;;12.67;100.00;101499.56;5092893;28;20024;-52
2023/05/09 02:58:35;;;;;;;39.30;27.48;;;;;;;12.64;100.00;101496.84;5093709;28;20142;-51
2023/05/09 03:01:00;;;;;;;37.08;27.23;;;;;;;12.59;100.00;101491.56;5093855;28;20110;-48
2023/05/09 03:03:25;;;;;;;37.10;25.88;;;;;;;12.61;100.00;101494.19;5092564;28;20123;-48
2023/05/09 03:05:50;;;;;;;36.88;28.17;;;;;;;12.62;100.00;101488.19;5093787;28;20476;-49
2023/05/09 03:08:16;;;;;;;37.67;28.05;;;;;;;12.57;100.00;101479.41;5093284;28;20024;-50
2023/05/09 03:10:41;;;;;;;42.40;27.63;;;;;;;12.55;100.00;101475.88;5092645;28;20044;-49
2023/05/09 03:13:07;;;;;;;38.35;27.25;;;;;;;12.49;100.00;101474.84;5093398;28;20028;-47
2023/05/09 03:15:32;;;;;;;35.83;26.20;;;;;;;12.49;100.00;101474.00;5093112;28;20055;-53
2023/05/09 03:17:58;;;;;;;38.53;27.10;;;;;;;12.50;100.00;101470.59;5093100;28;20051;-51
2023/05/09 03:20:25;;;;;;;40.97;27.90;;;;;;;12.49;100.00;101467.09;5093142;28;20416;-51
2023/05/09 03:22:50;;;;;;;36.00;27.33;;;;;;;12.50;100.00;101468.00;5093178;28;20095;-50
2023/05/09 03:25:16;;;;;;;40.75;26.65;;;;;;;12.52;100.00;101468.91;5092314;28;20107;-49
2023/05/09 03:27:41;;;;;;;37.33;27.40;;;;;;;12.51;100.00;101462.88;5093460;28;20103;-49
2023/05/09 03:30:07;;;;;;;41.67;28.17;;;;;;;12.51;100.00;101469.72;5093235;28;20028;-52
2023/05/09 03:32:32;;;;;;;43.67;29.38;;;;;;;12.51;100.00;101469.72;5092275;28;20120;-50
2023/05/09 03:34:58;;;;;;;38.92;27.70;;;;;;;12.51;100.00;101470.63;5093168;28;20020;-50
2023/05/09 03:37:23;;;;;;;41.33;29.85;;;;;;;12.52;100.00;101469.81;5092634;28;20028;-52
2023/05/09 03:39:48;;;;;;;41.22;29.27;;;;;;;12.50;100.00;101463.69;5092395;28;20111;-49
2023/05/09 03:42:14;;;;;;;42.05;29.58;;;;;;;12.51;100.00;101464.56;5092971;28;20016;-49
2023/05/09 03:44:39;;;;;;;46.20;29.25;;;;;;;12.52;100.00;101461.16;5092612;28;20063;-49
2023/05/09 03:47:05;;;;;;;43.92;30.95;;;;;;;12.54;100.00;101453.44;5092443;28;20044;-50
2023/05/09 03:49:30;;;;;;;41.03;29.35;;;;;;;12.50;100.00;101449.91;5092835;28;20024;-50
2023/05/09 03:51:55;;;;;;;43.88;30.85;;;;;;;12.47;100.00;101450.69;5092160;28;20031;-54
2023/05/09 03:54:20;;;;;;;41.83;31.10;;;;;;;12.45;100.00;101444.56;5092585;28;20024;-49
2023/05/09 03:56:46;;;;;;;42.72;31.27;;;;;;;12.45;100.00;101449.75;5092865;28;20027;-49
2023/05/09 03:59:11;;;;;;;43.92;31.65;;;;;;;12.42;100.00;101444.50;5091934;28;20540;-53
2023/05/09 04:01:36;;;;;;;43.33;31.23;;;;;;;12.41;100.00;101441.81;5092708;28;20028;-52
2023/05/09 04:04:02;;;;;;;46.03;31.70;;;;;;;12.41;100.00;101439.25;5092879;28;20039;-53
2023/05/09 04:06:28;;;;;;;47.83;31.60;;;;;;;12.39;100.00;101438.34;5091840;28;20024;-53
2023/05/09 04:08:54;;;;;;;43.33;30.42;;;;;;;12.42;100.00;101433.25;5092725;28;20044;-53
2023/05/09 04:11:20;;;;;;;41.55;30.05;;;;;;;12.40;100.00;101425.44;5092393;28;20038;-52
2023/05/09 04:13:45;;;;;;;47.97;30.88;;;;;;;12.40;100.00;101420.28;5091944;28;20472;-51
2023/05/09 04:16:11;;;;;;;41.22;29.38;;;;;;;12.42;100.00;101421.22;5092818;28;20031;-53
2023/05/09 04:18:38;;;;;;;42.05;30.17;;;;;;;12.42;100.00;101408.28;5092154;28;20017;-53
2023/05/09 04:21:04;;;;;;;;;;;;;;;12.50;100.00;101409.41;5092529;28;20533;-52
2023/05/09 04:23:29;;;;;;;43.25;29.48;;;;;;;12.45;100.00;101408.38;5092486;28;20010;-52
2023/05/09 04:25:55;;;;;;;40.78;29.63;;;;;;;12.45;100.00;101408.38;5092528;28;20031;-53
2023/05/09 04:28:21;;;;;;;39.78;28.38;;;;;;;12.46;100.00;101410.13;5091979;28;20029;-52
2023/05/09 04:30:46;;;;;;;42.22;27.95;;;;;;;12.48;100.00;101405.00;5092649;28;20043;-53
2023/05/09 04:33:11;;;;;;;38.75;27.48;;;;;;;12.51;100.00;101411.16;5092349;28;20085;-53
2023/05/09 04:35:37;;;;;;;39.05;27.27;;;;;;;12.54;100.00;101414.66;5091650;28;20028;-53
2023/05/09 04:38:03;;;;;;;41.75;27.63;;;;;;;12.60;100.00;101409.66;5092502;28;20467;-53
2023/05/09 04:40:29;;;;;;;36.40;27.67;;;;;;;12.61;100.00;101414.88;5091880;28;20062;-51
2023/05/09 04:42:56;;;;;;;36.53;26.33;;;;;;;12.65;100.00;101405.50;5091817;28;20475;-51
2023/05/09 04:45:21;;;;;;;36.00;26.95;;;;;;;12.67;100.00;101403.88;5092175;28;20025;-53
2023/05/09 04:47:46;;;;;;;35.97;25.95;;;;;;;12.71;100.00;101403.13;5092193;28;20030;-52
2023/05/09 04:50:12;;;;;;;32.72;25.73;;;;;;;12.73;100.00;101401.47;5092024;28;20032;-53
2023/05/09 04:52:37;;;;;;;34.13;25.30;;;;;;;12.78;100.00;101399.00;5092181;28;20471;-53
2023/05/09 04:55:03;;;;;;;37.10;26.05;;;;;;;12.83;100.00;101390.56;5092089;28;20028;-52
2023/05/09 04:57:28;;;;;;;36.22;24.88;;;;;;;12.88;100.00;101385.50;5091480;28;20360;-53
2023/05/09 04:59:53;;;;;;;32.30;24.10;;;;;;;12.92;100.00;101389.91;5093983;28;20050;-53
2023/05/09 05:02:20;;;;;;;30.40;23.33;;;;;;;12.95;100.00;101389.13;5095057;28;20024;-53
2023/05/09 05:04:45;;;;;;;31.42;23.00;;;;;;;12.99;100.00;101391.88;5095894;28;20024;-52
2023/05/09 05:07:10;;;;;;;27.83;22.33;;;;;;;13.02;100.00;101380.72;5095982;28;20066;-52
2023/05/09 05:09:35;;;;;;;29.48;22.48;;;;;;;13.05;100.00;101375.63;5094606;28;20682;-53
2023/05/09 05:12:01;;;;;;;30.48;23.00;;;;;;;13.09;100.00;101377.50;5096005;28;20077;-51
2023/05/09 05:14:26;;;;;;;26.95;22.17;;;;;;;13.11;100.00;101362.00;5095698;28;20368;-52
2023/05/09 05:16:51;;;;;;;27.58;21.70;;;;;;;13.12;100.00;101362.03;5095090;28;20032;-51
2023/05/09 05:19:17;;;;;;;28.95;21.48;;;;;;;13.14;100.00;101355.19;5095442;28;20028;-53
2023/05/09 05:21:42;;;;;;;30.38;22.73;;;;;;;13.14;100.00;101350.03;5095403;28;20510;-54
2023/05/09 05:24:08;;;;;;;27.67;22.33;;;;;;;13.17;100.00;101355.25;5094989;28;20054;-52
2023/05/09 05:26:33;;;;;;;28.00;22.73;;;;;;;13.22;100.00;101344.16;5095411;28;20089;-53
2023/05/09 05:28:59;;;;;;;31.02;22.52;;;;;;;13.22;100.00;101344.16;5095110;28;20475;-52
2023/05/09 05:31:24;;;;;;;28.60;22.58;;;;;;;13.32;100.00;101339.28;5094549;28;20379;-53
2023/05/09 05:33:50;;;;;;;29.60;21.80;;;;;;;13.35;100.00;101343.66;5095601;28;20028;-53
2023/05/09 05:36:15;;;;;;;27.85;22.95;;;;;;;13.38;100.00;101340.31;5095008;28;20038;-54
2023/05/09 05:38:40;;;;;;;28.80;23.38;;;;;;;13.41;100.00;101338.66;5094797;28;20024;-53
2023/05/09 05:41:09;;;;;;;29.05;23.00;;;;;;;13.46;100.00;101339.66;5095460;28;20032;-53
2023/05/09 05:43:35;;;;;;;27.20;21.35;;;;;;;13.56;100.00;101343.34;5094937;28;20359;-53
2023/05/09 05:46:00;;;;;;;29.92;22.85;;;;;;;13.64;100.00;101335.78;5094764;28;20073;-52
2023/05/09 05:48:25;;;;;;;28.00;22.23;;;;;;;13.69;100.00;101329.00;5094920;28;20072;-51
2023/05/09 05:50:51;;;;;;;27.25;22.98;;;;;;;13.73;100.00;101335.13;5094894;28;20027;-53
2023/05/09 05:53:16;;;;;;;28.80;22.05;;;;;;;13.76;100.00;101332.59;5094090;28;20054;-53
2023/05/09 05:55:41;;;;;;;28.55;22.27;;;;;;;13.82;100.00;101325.84;5094980;28;20032;-53
2023/05/09 05:58:06;;;;;;;29.35;21.83;;;;;;;13.93;100.00;101318.34;5094884;28;20390;-52
2023/05/09 06:00:32;;;;;;;27.73;20.98;;;;;;;13.97;100.00;101319.31;5094044;28;20040;-52
2023/05/09 06:02:57;;;;;;;29.05;21.25;;;;;;;13.97;100.00;101321.91;5095131;28;20483;-53
2023/05/09 06:05:22;;;;;;;26.95;21.45;;;;;;;14.00;100.00;101316.78;5094200;28;20031;-53
2023/05/09 06:07:47;;;;;;;28.23;21.95;;;;;;;14.05;100.00;101312.56;5094104;28;20023;-53
2023/05/09 06:10:14;;;;;;;25.83;21.10;;;;;;;14.10;100.00;101310.97;5094170;28;20068;-53
2023/05/09 06:12:40;;;;;;;25.67;20.40;;;;;;;14.08;100.00;101317.81;5092775;28;20384;-52
2023/05/09 06:15:05;;;;;;;25.23;20.30;;;;;;;14.08;100.00;101307.44;5094688;28;20472;-53
2023/05/09 06:17:31;;;;;;;25.73;19.52;;;;;;;14.13;100.00;101300.66;5094308;28;20030;-53
2023/05/09 06:19:56;;;;;;;23.45;19.20;;;;;;;14.10;100.00;101295.41;5093706;28;20032;-53
2023/05/09 06:22:21;;;;;;;22.15;18.42;;;;;;;14.14;100.00;101297.22;5094202;28;20047;-53
2023/05/09 06:24:47;;;;;;;26.00;19.83;;;;;;;14.19;100.00;101301.63;5094270;28;20405;-53
2023/05/09 06:27:12;;;;;;;23.48;18.98;;;;;;;14.22;100.00;101299.13;5093722;28;20024;-52
2023/05/09 06:29:37;;;;;;;25.08;19.70;;;;;;;14.25;100.00;101294.00;5094202;28;20046;-53
2023/05/09 06:32:03;;;;;;;23.77;19.40;;;;;;;14.33;100.00;101295.00;5094096;28;20059;-53
2023/05/09 06:34:28;;;;;;;24.02;18.85;;;;;;;14.30;100.00;101295.81;5093483;28;20020;-53
2023/05/09 06:36:53;;;;;;;28.90;20.45;;;;;;;14.33;100.00;101297.59;5094073;28;20042;-53
2023/05/09 06:39:19;;;;;;;22.92;18.00;;;;;;;14.31;100.00;101289.81;5093482;28;20525;-53
2023/05/09 06:41:44;;;;;;;24.17;18.25;;;;;;;14.33;100.00;101284.66;5093739;28;20028;-49
2023/05/09 06:44:09;;;;;;;20.95;17.08;;;;;;;14.34;100.00;101289.00;5094155;28;20032;-53
2023/05/09 06:46:35;;;;;;;22.70;17.35;;;;;;;14.38;100.00;101284.75;5093485;28;20064;-53
2023/05/09 06:49:04;;;;;;;22.35;16.90;;;;;;;14.45;100.00;101282.31;5093530;28;20121;-53
2023/05/09 06:51:30;;;;;;;22.88;17.30;;;;;;;14.52;100.00;101278.13;5093581;28;20052;-51
2023/05/09 06:53:55;;;;;;;18.80;16.02;;;;;;;14.61;100.00;101277.44;5093813;28;20048;-53
2023/05/09 06:56:21;;;;;;;22.92;17.30;;;;;;;14.68;100.00;101275.88;5093175;28;20028;-52
2023/05/09 06:58:46;;;;;;;20.42;16.25;;;;;;;14.71;100.00;101276.81;5093652;28;20027;-52
2023/05/09 07:01:12;;;;;;;22.13;16.73;;;;;;;14.85;100.00;101273.59;5093556;28;20028;-52
2023/05/09 07:03:37;;;;;;;20.95;16.05;;;;;;;14.87;100.00;101270.19;5093031;28;20050;-53
2023/05/09 07:06:03;;;;;;;23.25;17.95;;;;;;;14.95;100.00;101262.53;5093624;28;20020;-53
2023/05/09 07:08:28;;;;;;;19.83;15.43;;;;;;;15.06;100.00;101260.16;5092822;28;20031;-49
2023/05/09 07:10:53;;;;;;;20.40;15.75;;;;;;;15.12;100.00;101255.94;5093231;28;20052;-50
2023/05/09 07:13:19;;;;;;;20.45;15.00;;;;;;;15.11;100.00;101259.38;5093405;28;20068;-53
2023/05/09 07:15:44;;;;;;;21.98;15.95;;;;;;;15.16;100.00;101256.88;5093223;28;20376;-52
2023/05/09 07:18:09;;;;;;;18.60;15.13;;;;;;;15.10;100.00;101249.84;5092900;28;20040;-53
2023/05/09 07:20:35;;;;;;;19.02;14.10;;;;;;;15.09;100.00;101255.00;5093191;28;20046;-53
2023/05/09 07:23:02;;;;;;;17.60;14.25;;;;;;;15.01;100.00;101252.28;5092036;28;20472;-46
2023/05/09 07:25:27;;;;;;;;;;;;;;;15.14;100.00;101253.38;5093564;28;20085;-53
2023/05/09 07:27:53;;;;;;;18.37;13.13;;;;;;;14.95;100.00;101244.38;5093159;28;20314;-52
2023/05/09 07:30:18;;;;;;;17.23;12.65;;;;;;;14.89;100.00;101241.69;5092268;28;20056;-52
2023/05/09 07:32:43;;;;;;;16.08;13.65;;;;;;;14.84;100.00;101244.19;5093101;28;20032;-53
2023/05/09 07:35:09;;;;;;;14.60;12.25;;;;;;;14.80;100.00;101238.06;5092858;28;20471;-50
2023/05/09 07:37:34;;;;;;;16.73;12.98;;;;;;;14.79;100.00;101248.41;5092269;28;20030;-50
2023/05/09 07:39:59;;;;;;;16.00;12.77;;;;;;;14.77;100.00;101239.72;5093267;28;20522;-48
2023/05/09 07:42:25;;;;;;;18.75;13.68;;;;;;;14.75;100.00;101239.69;5092708;28;20384;-50
2023/05/09 07:44:50;;;;;;;17.88;12.35;;;;;;;14.76;100.00;101236.25;5086579;28;20033;-52
2023/05/09 07:47:15;;;;;;;16.77;13.07;;;;;;;14.69;100.00;101236.97;5080425;28;20025;-48
2023/05/09 07:49:42;;;;;;;12.45;10.73;;;;;;;14.56;100.00;101240.16;5075066;28;20020;-50
2023/05/09 07:52:07;;;;;;;13.27;11.88;;;;;;;14.41;100.00;101235.53;5072191;28;20035;-52
2023/05/09 07:54:33;;;;;;;16.90;12.75;;;;;;;14.30;100.00;101235.31;5072648;28;20024;-52
2023/05/09 07:56:58;;;;;;;16.33;13.32;;;;;;;14.23;100.00;101233.44;5072574;28;20028;-51
2023/05/09 07:59:23;;;;;;;17.17;13.25;;;;;;;14.20;100.00;101229.06;5071953;28;20027;-52
2023/05/09 08:01:49;;;;;;;14.15;12.25;;;;;;;14.15;100.00;101226.41;5072904;28;20456;-48
2023/05/09 08:04:14;;;;;;;15.52;13.32;;;;;;;14.12;100.00;101223.72;5072365;28;20455;-53
2023/05/09 08:06:39;;;;;;;15.70;13.18;;;;;;;14.06;100.00;101220.13;5071808;28;20024;-53
2023/05/09 08:09:05;;;;;;;15.23;13.65;;;;;;;14.00;100.00;101216.56;5072598;28;20043;-48
2023/05/09 08:11:34;;;;;;;17.67;14.50;;;;;;;13.97;100.00;101215.66;5071989;28;20025;-53
2023/05/09 08:14:00;;;;;;;16.15;13.38;;;;;;;13.98;100.00;101212.19;5072200;28;20046;-52
2023/05/09 08:16:25;;;;;;;14.77;12.65;;;;;;;13.98;100.00;101214.78;5072261;28;20111;-51
2023/05/09 08:18:51;;;;;;;16.85;12.60;;;;;;;13.95;100.00;101210.41;5072224;28;20017;-51
2023/05/09 08:21:16;;;;;;;17.38;13.40;;;;;;;13.95;100.00;101201.78;5071505;28;20020;-50
2023/05/09 08:23:41;;;;;;;17.13;13.10;;;;;;;13.98;100.00;101196.66;5072290;28;20028;-51
2023/05/09 08:26:07;;;;;;;15.57;13.05;;;;;;;14.06;100.00;101197.69;5072287;28;20027;-52
2023/05/09 08:28:32;;;;;;;16.27;12.30;;;;;;;14.15;100.00;101190.09;5071599;28;20056;-53
2023/05/09 08:30:57;;;;;;;14.52;12.07;;;;;;;14.18;100.00;101188.41;5072411;28;20024;-53
2023/05/09 08:33:23;;;;;;;12.70;10.90;;;;;;;14.20;100.00;101181.53;5071436;28;20025;-53
2023/05/09 08:35:55;;;;;;;11.82;10.13;;;;;;;14.22;100.00;101179.88;5075174;28;20456;-52
2023/05/09 08:38:20;;;;;;;11.32;9.52;;;;;;;14.21;100.00;101180.72;5075798;28;20032;-48
2023/05/09 08:40:46;;;;;;;11.98;10.00;;;;;;;14.13;100.00;101178.81;5075467;28;20017;-50
2023/05/09 08:43:12;;;;;;;11.93;10.13;;;;;;;14.15;100.00;101179.75;5076126;28;20036;-50
2023/05/09 08:45:46;;;;;;;11.93;10.25;;;;;;;14.18;100.00;101172.84;5078251;28;20098;-53
2023/05/09 08:48:14;;;;;;;12.93;10.27;;;;;;;14.23;100.00;101176.41;5086825;28;20422;-52
2023/05/09 08:50:40;;;;;;;11.93;10.73;;;;;;;14.26;100.00;101164.38;5095890;28;20460;-50
2023/05/09 08:53:06;;;;;;;11.90;9.63;;;;;;;14.21;100.00;101165.16;5096189;28;20070;-51
2023/05/09 08:55:31;;;;;;;11.75;10.00;;;;;;;14.16;100.00;101171.13;5095577;28;20406;-49
2023/05/09 08:57:56;;;;;;;13.82;10.07;;;;;;;14.04;100.00;101168.28;5096174;28;20472;-47
2023/05/09 09:00:22;;;;;;;12.63;11.13;;;;;;;14.03;100.00;101169.13;5095510;28;20024;-52
2023/05/09 09:02:48;;;;;;;13.55;11.25;;;;;;;14.02;100.00;101163.91;5095443;28;20032;-52
2023/05/09 09:05:13;;;;;;;14.30;12.38;;;;;;;14.10;100.00;101163.22;5096121;28;20020;-51
2023/05/09 09:07:40;;;;;;;14.30;12.20;;;;;;;14.07;100.00;101165.75;5095372;28;20113;-52
2023/05/09 09:10:07;;;;;;;15.83;13.60;;;;;;;14.11;100.00;101162.38;5095146;28;20555;-52
2023/05/09 09:12:34;;;;;;;14.75;13.15;;;;;;;14.11;100.00;101164.09;5095600;28;20082;-50
2023/05/09 09:15:03;;;;;;;16.08;11.05;;;;;;;14.12;100.00;101158.94;5095581;28;20024;-50
2023/05/09 09:17:31;;;;;;;14.45;12.80;;;;;;;14.19;100.00;101153.88;5094770;28;20380;-50
2023/05/09 09:20:01;;;;;;;13.25;11.48;;;;;;;14.24;100.00;101157.44;5095827;28;20035;-52
2023/05/09 09:22:32;;;;;;;13.43;11.63;;;;;;;14.30;100.00;101154.97;5095439;28;20020;-51
2023/05/09 09:25:01;;;;;;;13.68;11.60;;;;;;;14.27;100.00;101157.50;5095647;28;20024;-52
2023/05/09 09:27:27;;;;;;;9.45;7.72;;;;;;;14.08;100.00;101144.16;5095005;28;20024;-47
2023/05/09 09:29:52;;;;;;;10.50;7.50;;;;;;;13.97;100.00;101148.28;5094833;28;20031;-52
2023/05/09 09:32:18;;;;;;;9.52;7.63;;;;;;;13.87;100.00;101143.75;5095099;28;20377;-52
2023/05/09 09:34:48;;;;;;;8.88;6.88;;;;;;;13.73;100.00;101149.50;5095294;28;20103;-52
2023/05/09 09:37:23;;;;;;;10.40;7.47;;;;;;;13.65;100.00;101145.88;5094948;28;20031;-51
2023/05/09 09:39:55;;;;;;;12.07;8.27;;;;;;;13.59;100.00;101145.75;5095432;28;20020;-51
2023/05/09 09:42:22;;;;;;;10.32;7.80;;;;;;;13.60;100.00;101138.00;5094895;28;20024;-51
2023/05/09 09:45:08;;;;;;;12.63;7.20;;;;;;;13.64;100.00;101133.75;5094419;28;20028;-51
2023/05/09 09:47:34;;;;;;;9.45;7.47;;;;;;;13.62;100.00;101138.03;5094845;28;20387;-51
2023/05/09 09:50:12;;;;;;;9.85;7.60;;;;;;;13.66;100.00;101126.91;5094901;28;20017;-52
2023/05/09 09:52:42;;;;;;;10.82;7.05;;;;;;;13.67;100.00;101136.41;5094191;28;20028;-52
2023/05/09 09:55:08;;;;;;;8.15;6.85;;;;;;;13.64;100.00;101124.25;5094995;28;20467;-50
2023/05/09 09:57:35;;;;;;;12.23;7.30;;;;;;;13.59;100.00;101125.88;5094657;28;20032;-49
2023/05/09 10:00:01;;;;;;;9.73;7.63;;;;;;;13.62;100.00;101113.03;5094355;28;20471;-50
2023/05/09 10:02:26;;;;;;;8.82;7.00;;;;;;;13.66;100.00;101119.16;5094419;28;20071;-52
2023/05/09 10:04:51;;;;;;;8.73;7.18;;;;;;;13.77;100.00;101119.34;5094222;28;20036;-51
2023/05/09 10:07:22;;;;;;;8.75;7.35;;;;;;;13.75;100.00;101116.75;5094671;28;20440;-53
2023/05/09 10:09:48;;;;;;;9.13;7.38;;;;;;;13.74;100.00;101109.81;5094430;28;20106;-53
2023/05/09 10:12:18;;;;;;;9.57;7.55;;;;;;;13.70;100.00;101110.59;5094284;28;20024;-52
2023/05/09 10:14:44;;;;;;;10.00;8.30;;;;;;;13.69;100.00;101106.25;5094850;28;20095;-52
2023/05/09 10:17:13;;;;;;;10.13;7.53;;;;;;;13.71;100.00;101111.44;5094471;28;20020;-51
2023/05/09 10:19:44;;;;;;;10.05;8.23;;;;;;;13.74;100.00;101106.34;5093717;28;20028;-49
2023/05/09 10:22:13;;;;;;;11.98;7.53;;;;;;;13.69;100.00;101110.56;5094353;28;20504;-52
2023/05/09 10:24:43;;;;;;;10.85;8.32;;;;;;;13.70;100.00;101109.69;5094179;28;20030;-52
2023/05/09 10:27:10;;;;;;;11.05;7.85;;;;;;;13.63;100.00;101101.81;5094083;28;20059;-51
2023/05/09 10:29:50;;;;;;;9.07;8.10;;;;;;;13.60;100.00;101100.88;5094194;28;20027;-51
2023/05/09 10:32:56;;;;;;;11.80;9.82;;;;;;;13.63;100.00;101095.75;5093809;28;20020;-51
2023/05/09 10:35:26;;;;;;;10.43;8.00;;;;;;;13.61;100.00;101092.28;5093348;28;20061;-53
2023/05/09 10:37:55;;;;;;;11.18;9.00;;;;;;;13.61;100.00;101089.69;5094142;28;20027;-52
2023/05/09 10:40:21;;;;;;;9.43;8.20;;;;;;;13.63;100.00;101080.22;5093359;28;20097;-52
2023/05/09 10:42:47;;;;;;;10.32;9.23;;;;;;;13.67;100.00;101084.59;5094007;28;20056;-49
2023/05/09 10:45:12;;;;;;;10.63;8.82;;;;;;;13.69;100.00;101082.94;5093870;28;20047;-52
2023/05/09 10:47:39;;;;;;;11.10;9.25;;;;;;;13.73;100.00;101076.09;5093145;28;20016;-51
2023/05/09 10:50:09;;;;;;;12.13;9.57;;;;;;;13.78;100.00;101064.97;5094119;28;20034;-52
2023/05/09 10:53:15;;;;;;;11.43;9.15;;;;;;;13.80;100.00;101068.50;5093349;28;20485;-51
2023/05/09 10:56:00;;;;;;;12.57;9.52;;;;;;;13.80;100.00;101062.41;5093502;28;20028;-51
2023/05/09 10:58:35;;;;;;;12.07;9.77;;;;;;;13.85;100.00;101060.78;5092880;28;20051;-50
2023/05/09 11:01:02;;;;;;;13.02;9.20;;;;;;;13.75;100.00;101067.53;5093416;28;20027;-51
2023/05/09 11:03:48;;;;;;;11.30;9.30;;;;;;;13.74;100.00;101051.97;5093417;28;20024;-48